sensor_id;sensor_type;location;lat;lon;timestamp;pressure;altitude;pressure_sealevel;temperature;humidity
77110;BME280;66062;52.464;16.922;2023-12-14T00:01:26;99665.03;;;4.55;100.00
77110;BME280;66062;52.464;16.922;2023-12-14T00:03:51;99660.19;;;4.28;100.00
77110;BME280;66062;52.464;16.922;2023-12-14T00:06:17;99661.72;;;4.42;100.00
77110;BME280;66062;52.464;16.922;2023-12-14T00:08:42;99664.78;;;4.58;100.00
77110;BME280;66062;52.464;16.922;2023-12-14T00:11:09;99664.41;;;4.30;100.00
77110;BME280;66062;52.464;16.922;2023-12-14T00:13:35;99661.00;;;4.40;100.00
77110;BME280;66062;52.464;16.922;2023-12-14T00:16:01;99667.69;;;4.55;100.00
77110;BME280;66062;52.464;16.922;2023-12-14T00:18:27;99667.44;;;4.58;100.00
77110;BME280;66062;52.464;16.922;2023-12-14T00:20:53;99669.84;;;4.61;100.00
77110;BME280;66062;52.464;16.922;2023-12-14T00:23:28;99674.97;;;4.19;100.00
77110;BME280;66062;52.464;16.922;2023-12-14T00:25:53;99671.91;;;4.46;100.00
77110;BME280;66062;52.464;16.922;2023-12-14T00:28:18;99667.03;;;4.30;100.00
77110;BME280;66062;52.464;16.922;2023-12-14T00:30:44;99675.91;;;4.41;100.00
77110;BME280;66062;52.464;16.922;2023-12-14T00:33:09;99669.66;;;4.42;100.00
77110;BME280;66062;52.464;16.922;2023-12-14T00:35:35;99673.53;;;4.26;100.00
77110;BME280;66062;52.464;16.922;2023-12-14T00:38:00;99673.34;;;4.50;100.00
77110;BME280;66062;52.464;16.922;2023-12-14T00:40:25;99681.19;;;4.41;100.00
77110;BME280;66062;52.464;16.922;2023-12-14T00:42:51;99680.44;;;4.39;100.00
77110;BME280;66062;52.464;16.922;2023-12-14T00:45:16;99672.25;;;4.53;100.00
77110;BME280;66062;52.464;16.922;2023-12-14T00:47:42;99682.44;;;4.57;100.00
77110;BME280;66062;52.464;16.922;2023-12-14T00:50:08;99688.88;;;4.32;100.00
77110;BME280;66062;52.464;16.922;2023-12-14T00:52:34;99694.13;;;4.44;100.00
77110;BME280;66062;52.464;16.922;2023-12-14T00:55:00;99702.31;;;4.29;100.00
77110;BME280;66062;52.464;16.922;2023-12-14T00:57:25;99698.00;;;4.17;100.00
77110;BME280;66062;52.464;16.922;2023-12-14T00:59:51;99710.63;;;4.25;100.00
77110;BME280;66062;52.464;16.922;2023-12-14T01:02:16;99713.56;;;4.43;100.00
77110;BME280;66062;52.464;16.922;2023-12-14T01:04:41;99712.13;;;4.50;100.00
77110;BME280;66062;52.464;16.922;2023-12-14T01:07:07;99706.84;;;4.50;100.00
77110;BME280;66062;52.464;16.922;2023-12-14T01:09:33;99713.84;;;4.40;100.00
77110;BME280;66062;52.464;16.922;2023-12-14T01:11:58;99720.34;;;4.24;100.00
77110;BME280;66062;52.464;16.922;2023-12-14T01:14:23;99724.19;;;4.20;100.00
77110;BME280;66062;52.464;16.922;2023-12-14T01:16:49;99725.00;;;4.32;100.00
77110;BME280;66062;52.464;16.922;2023-12-14T01:19:14;99727.41;;;4.24;100.00
77110;BME280;66062;52.464;16.922;2023-12-14T01:21:39;99729.47;;;4.32;100.00
77110;BME280;66062;52.464;16.922;2023-12-14T01:24:06;99728.47;;;4.44;100.00
77110;BME280;66062;52.464;16.922;2023-12-14T01:26:32;99736.03;;;4.37;100.00
77110;BME280;66062;52.464;16.922;2023-12-14T01:28:57;99734.25;;;4.38;100.00
77110;BME280;66062;52.464;16.922;2023-12-14T01:31:24;99740.25;;;4.40;100.00
77110;BME280;66062;52.464;16.922;2023-12-14T01:33:50;99744.59;;;4.29;100.00
77110;BME280;66062;52.464;16.922;2023-12-14T01:36:20;99746.16;;;4.21;100.00
77110;BME280;66062;52.464;16.922;2023-12-14T01:38:46;99749.88;;;4.41;100.00
77110;BME280;66062;52.464;16.922;2023-12-14T01:41:12;99741.69;;;4.32;100.00
77110;BME280;66062;52.464;16.922;2023-12-14T01:43:37;99743.38;;;4.22;100.00
77110;BME280;66062;52.464;16.922;2023-12-14T01:46:02;99751.78;;;4.39;100.00
77110;BME280;66062;52.464;16.922;2023-12-14T01:48:28;99746.03;;;4.11;100.00
77110;BME280;66062;52.464;16.922;2023-12-14T01:50:53;99747.59;;;4.25;100.00
77110;BME280;66062;52.464;16.922;2023-12-14T01:53:19;99740.50;;;4.25;100.00
77110;BME280;66062;52.464;16.922;2023-12-14T01:55:44;99741.97;;;3.96;100.00
77110;BME280;66062;52.464;16.922;2023-12-14T01:58:09;99737.75;;;4.16;100.00
77110;BME280;66062;52.464;16.922;2023-12-14T02:03:18;99748.19;;;3.95;100.00
77110;BME280;66062;52.464;16.922;2023-12-14T02:05:44;99737.75;;;4.05;100.00
77110;BME280;66062;52.464;16.922;2023-12-14T02:08:09;99740.50;;;4.03;100.00
77110;BME280;66062;52.464;16.922;2023-12-14T02:10:35;99737.03;;;4.03;100.00
77110;BME280;66062;52.464;16.922;2023-12-14T02:13:03;99741.72;;;3.99;100.00
77110;BME280;66062;52.464;16.922;2023-12-14T02:15:29;99746.63;;;3.93;100.00
77110;BME280;66062;52.464;16.922;2023-12-14T02:17:55;99755.41;;;4.04;100.00
77110;BME280;66062;52.464;16.922;2023-12-14T02:20:20;99749.75;;;3.98;100.00
77110;BME280;66062;52.464;16.922;2023-12-14T02:22:49;99753.34;;;3.97;100.00
77110;BME280;66062;52.464;16.922;2023-12-14T02:25:23;99753.94;;;3.89;100.00
77110;BME280;66062;52.464;16.922;2023-12-14T02:27:50;99759.22;;;3.89;100.00
77110;BME280;66062;52.464;16.922;2023-12-14T02:30:17;99754.19;;;3.97;100.00
77110;BME280;66062;52.464;16.922;2023-12-14T02:32:42;99759.47;;;3.97;100.00
77110;BME280;66062;52.464;16.922;2023-12-14T02:35:08;99763.28;;;3.93;100.00
77110;BME280;66062;52.464;16.922;2023-12-14T02:37:34;99765.47;;;3.88;100.00
77110;BME280;66062;52.464;16.922;2023-12-14T02:40:02;99775.53;;;3.83;100.00
77110;BME280;66062;52.464;16.922;2023-12-14T02:42:28;99775.28;;;3.75;100.00
77110;BME280;66062;52.464;16.922;2023-12-14T02:44:54;99772.16;;;3.92;100.00
77110;BME280;66062;52.464;16.922;2023-12-14T02:47:19;99775.66;;;4.04;100.00
77110;BME280;66062;52.464;16.922;2023-12-14T02:49:45;99786.44;;;3.78;100.00
77110;BME280;66062;52.464;16.922;2023-12-14T02:52:10;99783.47;;;3.94;100.00
77110;BME280;66062;52.464;16.922;2023-12-14T02:54:37;99785.50;;;3.91;100.00
77110;BME280;66062;52.464;16.922;2023-12-14T02:57:03;99786.09;;;3.94;100.00
77110;BME280;66062;52.464;16.922;2023-12-14T02:59:29;99796.00;;;3.68;100.00
77110;BME280;66062;52.464;16.922;2023-12-14T03:01:54;99796.91;;;3.91;100.00
77110;BME280;66062;52.464;16.922;2023-12-14T03:04:19;99799.75;;;3.88;100.00
77110;BME280;66062;52.464;16.922;2023-12-14T03:06:45;99794.63;;;3.98;100.00
77110;BME280;66062;52.464;16.922;2023-12-14T03:09:10;99803.72;;;3.82;100.00
77110;BME280;66062;52.464;16.922;2023-12-14T03:11:35;99813.75;;;3.66;100.00
77110;BME280;66062;52.464;16.922;2023-12-14T03:14:01;99802.53;;;3.75;100.00
77110;BME280;66062;52.464;16.922;2023-12-14T03:16:26;99812.72;;;3.80;100.00
77110;BME280;66062;52.464;16.922;2023-12-14T03:18:51;99811.06;;;3.90;100.00
77110;BME280;66062;52.464;16.922;2023-12-14T03:21:22;99818.25;;;3.88;100.00
77110;BME280;66062;52.464;16.922;2023-12-14T03:23:47;99828.91;;;3.86;100.00
77110;BME280;66062;52.464;16.922;2023-12-14T03:26:13;99835.84;;;3.76;100.00
77110;BME280;66062;52.464;16.922;2023-12-14T03:28:38;99830.69;;;3.86;100.00
77110;BME280;66062;52.464;16.922;2023-12-14T03:31:04;99828.69;;;3.90;100.00
77110;BME280;66062;52.464;16.922;2023-12-14T03:33:29;99836.81;;;3.86;100.00
77110;BME280;66062;52.464;16.922;2023-12-14T03:35:55;99839.41;;;3.64;100.00
77110;BME280;66062;52.464;16.922;2023-12-14T03:38:20;99842.44;;;3.82;100.00
77110;BME280;66062;52.464;16.922;2023-12-14T03:40:45;99847.25;;;3.77;100.00
77110;BME280;66062;52.464;16.922;2023-12-14T03:43:11;99853.06;;;3.58;100.00
77110;BME280;66062;52.464;16.922;2023-12-14T03:45:36;99855.75;;;3.69;100.00
77110;BME280;66062;52.464;16.922;2023-12-14T03:48:01;99859.94;;;3.72;100.00
77110;BME280;66062;52.464;16.922;2023-12-14T03:50:27;99861.38;;;3.65;100.00
77110;BME280;66062;52.464;16.922;2023-12-14T03:52:53;99869.59;;;3.84;100.00
77110;BME280;66062;52.464;16.922;2023-12-14T03:55:18;99865.47;;;3.69;100.00
77110;BME280;66062;52.464;16.922;2023-12-14T03:57:44;99864.19;;;3.85;100.00
77110;BME280;66062;52.464;16.922;2023-12-14T04:00:11;99861.88;;;3.70;100.00
77110;BME280;66062;52.464;16.922;2023-12-14T04:02:36;99867.31;;;3.56;100.00
77110;BME280;66062;52.464;16.922;2023-12-14T04:05:02;99876.41;;;3.75;100.00
77110;BME280;66062;52.464;16.922;2023-12-14T04:07:27;99866.84;;;3.85;100.00
77110;BME280;66062;52.464;16.922;2023-12-14T04:09:53;99867.06;;;3.82;100.00
77110;BME280;66062;52.464;16.922;2023-12-14T04:12:18;99875.25;;;3.91;100.00
77110;BME280;66062;52.464;16.922;2023-12-14T04:14:44;99875.06;;;3.81;100.00
77110;BME280;66062;52.464;16.922;2023-12-14T04:17:10;99874.38;;;3.79;100.00
77110;BME280;66062;52.464;16.922;2023-12-14T04:19:38;99878.31;;;3.73;100.00
77110;BME280;66062;52.464;16.922;2023-12-14T04:22:03;99885.88;;;3.78;100.00
77110;BME280;66062;52.464;16.922;2023-12-14T04:24:29;99881.94;;;3.83;100.00
77110;BME280;66062;52.464;16.922;2023-12-14T04:26:55;99887.50;;;3.68;100.00
77110;BME280;66062;52.464;16.922;2023-12-14T04:29:20;99883.47;;;3.51;100.00
77110;BME280;66062;52.464;16.922;2023-12-14T04:31:46;99889.91;;;3.71;100.00
77110;BME280;66062;52.464;16.922;2023-12-14T04:34:11;99890.66;;;3.73;100.00
77110;BME280;66062;52.464;16.922;2023-12-14T04:36:42;99896.97;;;3.59;100.00
77110;BME280;66062;52.464;16.922;2023-12-14T04:39:07;99887.84;;;3.63;100.00
77110;BME280;66062;52.464;16.922;2023-12-14T04:41:32;99896.22;;;3.57;100.00
77110;BME280;66062;52.464;16.922;2023-12-14T04:43:58;99892.53;;;3.60;100.00
77110;BME280;66062;52.464;16.922;2023-12-14T04:46:23;99894.09;;;3.38;100.00
77110;BME280;66062;52.464;16.922;2023-12-14T04:48:48;99894.78;;;3.29;100.00
77110;BME280;66062;52.464;16.922;2023-12-14T04:51:14;99897.94;;;3.34;100.00
77110;BME280;66062;52.464;16.922;2023-12-14T04:53:39;99894.31;;;3.35;100.00
77110;BME280;66062;52.464;16.922;2023-12-14T04:56:09;99893.16;;;3.39;100.00
77110;BME280;66062;52.464;16.922;2023-12-14T04:58:34;99911.53;;;3.52;100.00
77110;BME280;66062;52.464;16.922;2023-12-14T05:01:00;99908.56;;;3.57;100.00
77110;BME280;66062;52.464;16.922;2023-12-14T05:03:25;99910.94;;;3.49;100.00
77110;BME280;66062;52.464;16.922;2023-12-14T05:05:50;99907.19;;;3.40;100.00
77110;BME280;66062;52.464;16.922;2023-12-14T05:08:16;99914.34;;;3.62;100.00
77110;BME280;66062;52.464;16.922;2023-12-14T05:10:41;99915.53;;;3.58;100.00
77110;BME280;66062;52.464;16.922;2023-12-14T05:13:06;99924.06;;;3.37;100.00
77110;BME280;66062;52.464;16.922;2023-12-14T05:15:32;99922.38;;;3.36;100.00
77110;BME280;66062;52.464;16.922;2023-12-14T05:17:58;99921.94;;;3.42;100.00
77110;BME280;66062;52.464;16.922;2023-12-14T05:20:23;99928.47;;;3.50;100.00
77110;BME280;66062;52.464;16.922;2023-12-14T05:22:48;99934.19;;;3.31;100.00
77110;BME280;66062;52.464;16.922;2023-12-14T05:25:14;99937.31;;;3.49;100.00
77110;BME280;66062;52.464;16.922;2023-12-14T05:27:40;99939.94;;;3.25;100.00
77110;BME280;66062;52.464;16.922;2023-12-14T05:30:06;99947.06;;;3.35;100.00
77110;BME280;66062;52.464;16.922;2023-12-14T05:32:31;99951.53;;;3.22;100.00
77110;BME280;66062;52.464;16.922;2023-12-14T05:34:57;99955.97;;;3.22;100.00
77110;BME280;66062;52.464;16.922;2023-12-14T05:37:22;99963.22;;;3.31;100.00
77110;BME280;66062;52.464;16.922;2023-12-14T05:39:48;99968.16;;;3.35;100.00
77110;BME280;66062;52.464;16.922;2023-12-14T05:42:16;99969.50;;;3.41;100.00
77110;BME280;66062;52.464;16.922;2023-12-14T05:44:42;99968.38;;;3.32;100.00
77110;BME280;66062;52.464;16.922;2023-12-14T05:47:09;99973.13;;;3.27;100.00
77110;BME280;66062;52.464;16.922;2023-12-14T05:49:35;99986.31;;;3.27;100.00
77110;BME280;66062;52.464;16.922;2023-12-14T05:52:00;99988.31;;;3.36;100.00
77110;BME280;66062;52.464;16.922;2023-12-14T05:54:26;99995.16;;;3.39;100.00
77110;BME280;66062;52.464;16.922;2023-12-14T05:56:51;100005.97;;;3.23;100.00
77110;BME280;66062;52.464;16.922;2023-12-14T05:59:17;100005.13;;;3.10;100.00
77110;BME280;66062;52.464;16.922;2023-12-14T06:01:42;100004.25;;;3.35;100.00
77110;BME280;66062;52.464;16.922;2023-12-14T06:04:08;100013.81;;;3.36;100.00
77110;BME280;66062;52.464;16.922;2023-12-14T06:06:34;100011.22;;;3.23;100.00
77110;BME280;66062;52.464;16.922;2023-12-14T06:08:59;100018.06;;;3.38;100.00
77110;BME280;66062;52.464;16.922;2023-12-14T06:11:24;100014.25;;;3.42;100.00
77110;BME280;66062;52.464;16.922;2023-12-14T06:13:50;100024.94;;;3.28;100.00
77110;BME280;66062;52.464;16.922;2023-12-14T06:16:16;100026.63;;;3.17;100.00
77110;BME280;66062;52.464;16.922;2023-12-14T06:18:41;100027.69;;;3.14;100.00
77110;BME280;66062;52.464;16.922;2023-12-14T06:21:08;100033.03;;;3.25;100.00
77110;BME280;66062;52.464;16.922;2023-12-14T06:23:35;100039.72;;;3.18;100.00
77110;BME280;66062;52.464;16.922;2023-12-14T06:26:03;100049.31;;;3.19;100.00
77110;BME280;66062;52.464;16.922;2023-12-14T06:28:29;100044.66;;;3.23;100.00
77110;BME280;66062;52.464;16.922;2023-12-14T06:30:56;100050.03;;;3.34;100.00
77110;BME280;66062;52.464;16.922;2023-12-14T06:33:21;100063.03;;;3.24;100.00
77110;BME280;66062;52.464;16.922;2023-12-14T06:35:47;100062.81;;;3.02;100.00
77110;BME280;66062;52.464;16.922;2023-12-14T06:38:14;100066.81;;;2.95;100.00
77110;BME280;66062;52.464;16.922;2023-12-14T06:40:39;100068.09;;;3.02;100.00
77110;BME280;66062;52.464;16.922;2023-12-14T06:43:05;100065.31;;;3.16;100.00
77110;BME280;66062;52.464;16.922;2023-12-14T06:45:30;100073.56;;;3.12;100.00
77110;BME280;66062;52.464;16.922;2023-12-14T06:47:56;100067.75;;;3.07;100.00
77110;BME280;66062;52.464;16.922;2023-12-14T06:50:21;100078.09;;;3.22;100.00
77110;BME280;66062;52.464;16.922;2023-12-14T06:52:47;100090.94;;;3.27;100.00
77110;BME280;66062;52.464;16.922;2023-12-14T06:55:12;100094.53;;;3.00;100.00
77110;BME280;66062;52.464;16.922;2023-12-14T06:57:42;100096.25;;;3.14;100.00
77110;BME280;66062;52.464;16.922;2023-12-14T07:00:08;100094.66;;;3.24;100.00
77110;BME280;66062;52.464;16.922;2023-12-14T07:02:33;100106.47;;;3.19;100.00
77110;BME280;66062;52.464;16.922;2023-12-14T07:04:59;100100.97;;;2.96;100.00
77110;BME280;66062;52.464;16.922;2023-12-14T07:07:24;100101.72;;;3.24;100.00
77110;BME280;66062;52.464;16.922;2023-12-14T07:09:50;100117.22;;;3.28;100.00
77110;BME280;66062;52.464;16.922;2023-12-14T07:12:15;100110.38;;;3.38;100.00
77110;BME280;66062;52.464;16.922;2023-12-14T07:14:40;100118.59;;;3.21;100.00
77110;BME280;66062;52.464;16.922;2023-12-14T07:17:06;100119.22;;;3.12;100.00
77110;BME280;66062;52.464;16.922;2023-12-14T07:19:31;100126.31;;;3.24;100.00
77110;BME280;66062;52.464;16.922;2023-12-14T07:21:57;100125.34;;;3.38;100.00
77110;BME280;66062;52.464;16.922;2023-12-14T07:24:22;100127.69;;;3.30;100.00
77110;BME280;66062;52.464;16.922;2023-12-14T07:26:48;100115.44;;;3.29;100.00
77110;BME280;66062;52.464;16.922;2023-12-14T07:29:14;100123.44;;;3.27;100.00
77110;BME280;66062;52.464;16.922;2023-12-14T07:31:40;100127.56;;;3.31;100.00
77110;BME280;66062;52.464;16.922;2023-12-14T07:34:05;100132.53;;;3.23;100.00
77110;BME280;66062;52.464;16.922;2023-12-14T07:36:31;100145.47;;;3.01;100.00
77110;BME280;66062;52.464;16.922;2023-12-14T07:38:56;100143.38;;;3.31;100.00
77110;BME280;66062;52.464;16.922;2023-12-14T07:41:22;100148.53;;;3.20;100.00
77110;BME280;66062;52.464;16.922;2023-12-14T07:43:55;100155.19;;;3.13;100.00
77110;BME280;66062;52.464;16.922;2023-12-14T07:46:20;100150.97;;;3.23;100.00
77110;BME280;66062;52.464;16.922;2023-12-14T07:48:46;100162.25;;;3.25;100.00
77110;BME280;66062;52.464;16.922;2023-12-14T07:51:11;100162.69;;;3.44;100.00
77110;BME280;66062;52.464;16.922;2023-12-14T07:53:37;100164.69;;;3.41;100.00
77110;BME280;66062;52.464;16.922;2023-12-14T07:56:02;100169.97;;;3.28;100.00
77110;BME280;66062;52.464;16.922;2023-12-14T07:58:28;100176.19;;;3.27;100.00
77110;BME280;66062;52.464;16.922;2023-12-14T08:00:53;100180.84;;;3.24;100.00
77110;BME280;66062;52.464;16.922;2023-12-14T08:03:19;100183.56;;;3.22;100.00
77110;BME280;66062;52.464;16.922;2023-12-14T08:05:44;100188.22;;;3.57;100.00
77110;BME280;66062;52.464;16.922;2023-12-14T08:08:09;100183.78;;;3.44;100.00
77110;BME280;66062;52.464;16.922;2023-12-14T08:10:35;100189.06;;;3.19;100.00
77110;BME280;66062;52.464;16.922;2023-12-14T08:13:00;100194.72;;;3.26;100.00
77110;BME280;66062;52.464;16.922;2023-12-14T08:15:26;100197.41;;;3.38;100.00
77110;BME280;66062;52.464;16.922;2023-12-14T08:17:51;100204.44;;;3.25;100.00
77110;BME280;66062;52.464;16.922;2023-12-14T08:20:16;100210.78;;;3.35;100.00
77110;BME280;66062;52.464;16.922;2023-12-14T08:22:42;100214.56;;;3.19;100.00
77110;BME280;66062;52.464;16.922;2023-12-14T08:25:11;100220.19;;;3.39;100.00
77110;BME280;66062;52.464;16.922;2023-12-14T08:27:36;100228.00;;;3.54;100.00
77110;BME280;66062;52.464;16.922;2023-12-14T08:30:01;100228.75;;;3.68;100.00
77110;BME280;66062;52.464;16.922;2023-12-14T08:32:27;100236.75;;;3.67;100.00
77110;BME280;66062;52.464;16.922;2023-12-14T08:34:52;100240.13;;;3.81;100.00
77110;BME280;66062;52.464;16.922;2023-12-14T08:37:18;100237.09;;;3.75;100.00
77110;BME280;66062;52.464;16.922;2023-12-14T08:39:44;100251.34;;;3.60;100.00
77110;BME280;66062;52.464;16.922;2023-12-14T08:42:09;100247.09;;;3.82;100.00
77110;BME280;66062;52.464;16.922;2023-12-14T08:44:41;100248.81;;;3.96;100.00
77110;BME280;66062;52.464;16.922;2023-12-14T08:47:06;100255.03;;;3.95;100.00
77110;BME280;66062;52.464;16.922;2023-12-14T08:49:34;100260.63;;;3.78;100.00
77110;BME280;66062;52.464;16.922;2023-12-14T08:51:59;100263.34;;;3.51;100.00
77110;BME280;66062;52.464;16.922;2023-12-14T08:54:25;100260.53;;;3.79;100.00
77110;BME280;66062;52.464;16.922;2023-12-14T08:56:50;100268.22;;;3.82;100.00
77110;BME280;66062;52.464;16.922;2023-12-14T08:59:15;100282.13;;;3.47;100.00
77110;BME280;66062;52.464;16.922;2023-12-14T09:01:41;100273.28;;;3.60;100.00
77110;BME280;66062;52.464;16.922;2023-12-14T09:04:06;100281.41;;;3.57;100.00
77110;BME280;66062;52.464;16.922;2023-12-14T09:06:32;100280.88;;;3.52;100.00
77110;BME280;66062;52.464;16.922;2023-12-14T09:08:57;100289.94;;;3.61;100.00
77110;BME280;66062;52.464;16.922;2023-12-14T09:11:23;100288.91;;;3.76;100.00
77110;BME280;66062;52.464;16.922;2023-12-14T09:13:50;100302.44;;;3.84;100.00
77110;BME280;66062;52.464;16.922;2023-12-14T09:16:16;100303.25;;;3.72;100.00
77110;BME280;66062;52.464;16.922;2023-12-14T09:18:41;100303.06;;;3.87;100.00
77110;BME280;66062;52.464;16.922;2023-12-14T09:21:07;100311.31;;;3.96;100.00
77110;BME280;66062;52.464;16.922;2023-12-14T09:23:33;100315.88;;;4.06;100.00
77110;BME280;66062;52.464;16.922;2023-12-14T09:25:58;100319.00;;;3.86;100.00
77110;BME280;66062;52.464;16.922;2023-12-14T09:28:24;100322.03;;;3.67;100.00
77110;BME280;66062;52.464;16.922;2023-12-14T09:30:50;100320.47;;;3.65;100.00
77110;BME280;66062;52.464;16.922;2023-12-14T09:33:15;100329.38;;;3.89;100.00
77110;BME280;66062;52.464;16.922;2023-12-14T09:35:40;100327.16;;;3.96;100.00
77110;BME280;66062;52.464;16.922;2023-12-14T09:38:07;100332.84;;;4.02;100.00
77110;BME280;66062;52.464;16.922;2023-12-14T09:40:33;100340.25;;;3.84;100.00
77110;BME280;66062;52.464;16.922;2023-12-14T09:43:00;100337.47;;;3.86;100.00
77110;BME280;66062;52.464;16.922;2023-12-14T09:45:29;100323.03;;;4.04;100.00
77110;BME280;66062;52.464;16.922;2023-12-14T09:47:59;100326.94;;;3.99;100.00
77110;BME280;66062;52.464;16.922;2023-12-14T09:50:26;100322.72;;;3.96;100.00
77110;BME280;66062;52.464;16.922;2023-12-14T09:52:51;100330.09;;;4.04;100.00
77110;BME280;66062;52.464;16.922;2023-12-14T09:55:17;100325.16;;;3.99;100.00
77110;BME280;66062;52.464;16.922;2023-12-14T09:57:42;100325.38;;;3.96;100.00
77110;BME280;66062;52.464;16.922;2023-12-14T10:00:08;100331.91;;;3.91;100.00
77110;BME280;66062;52.464;16.922;2023-12-14T10:02:39;100336.09;;;3.68;100.00
77110;BME280;66062;52.464;16.922;2023-12-14T10:05:09;100333.03;;;3.86;100.00
77110;BME280;66062;52.464;16.922;2023-12-14T10:07:41;100335.72;;;3.99;100.00
77110;BME280;66062;52.464;16.922;2023-12-14T10:10:12;100338.50;;;3.71;100.00
77110;BME280;66062;52.464;16.922;2023-12-14T10:12:52;100339.88;;;3.76;100.00
77110;BME280;66062;52.464;16.922;2023-12-14T10:15:18;100347.66;;;3.53;100.00
77110;BME280;66062;52.464;16.922;2023-12-14T10:17:44;100343.53;;;3.49;100.00
77110;BME280;66062;52.464;16.922;2023-12-14T10:20:09;100345.28;;;3.75;100.00
77110;BME280;66062;52.464;16.922;2023-12-14T10:22:35;100356.72;;;4.01;100.00
77110;BME280;66062;52.464;16.922;2023-12-14T10:25:02;100358.84;;;3.96;100.00
77110;BME280;66062;52.464;16.922;2023-12-14T10:27:30;100350.06;;;3.95;100.00
77110;BME280;66062;52.464;16.922;2023-12-14T10:29:56;100353.22;;;3.75;100.00
77110;BME280;66062;52.464;16.922;2023-12-14T10:32:23;100351.25;;;4.16;100.00
77110;BME280;66062;52.464;16.922;2023-12-14T10:34:49;100351.75;;;4.34;100.00
77110;BME280;66062;52.464;16.922;2023-12-14T10:37:15;100359.03;;;3.80;100.00
77110;BME280;66062;52.464;16.922;2023-12-14T10:39:42;100360.91;;;3.78;100.00
77110;BME280;66062;52.464;16.922;2023-12-14T10:42:09;100366.44;;;4.00;100.00
77110;BME280;66062;52.464;16.922;2023-12-14T10:44:36;100363.06;;;4.23;100.00
77110;BME280;66062;52.464;16.922;2023-12-14T10:47:03;100364.97;;;4.21;100.00
77110;BME280;66062;52.464;16.922;2023-12-14T10:49:34;100366.88;;;4.19;100.00
77110;BME280;66062;52.464;16.922;2023-12-14T10:52:01;100362.00;;;4.13;100.00
77110;BME280;66062;52.464;16.922;2023-12-14T10:54:30;100363.94;;;4.11;100.00
77110;BME280;66062;52.464;16.922;2023-12-14T10:56:57;100373.63;;;4.23;100.00
77110;BME280;66062;52.464;16.922;2023-12-14T10:59:26;100373.53;;;4.25;100.00
77110;BME280;66062;52.464;16.922;2023-12-14T11:01:55;100376.91;;;4.40;100.00
77110;BME280;66062;52.464;16.922;2023-12-14T11:04:25;100383.25;;;4.50;100.00
77110;BME280;66062;52.464;16.922;2023-12-14T11:06:53;100384.94;;;4.25;100.00
77110;BME280;66062;52.464;16.922;2023-12-14T11:09:18;100385.03;;;3.99;100.00
77110;BME280;66062;52.464;16.922;2023-12-14T11:11:54;100390.41;;;4.22;100.00
77110;BME280;66062;52.464;16.922;2023-12-14T11:14:23;100402.59;;;4.25;100.00
77110;BME280;66062;52.464;16.922;2023-12-14T11:16:50;100405.28;;;3.98;100.00
77110;BME280;66062;52.464;16.922;2023-12-14T11:24:25;100422.03;;;4.49;100.00
77110;BME280;66062;52.464;16.922;2023-12-14T11:26:52;100417.47;;;4.64;100.00
77110;BME280;66062;52.464;16.922;2023-12-14T11:29:18;100414.84;;;4.51;100.00
77110;BME280;66062;52.464;16.922;2023-12-14T11:31:44;100421.91;;;4.76;100.00
77110;BME280;66062;52.464;16.922;2023-12-14T11:34:11;100417.03;;;4.83;100.00
77110;BME280;66062;52.464;16.922;2023-12-14T11:36:36;100425.81;;;4.70;98.83
77110;BME280;66062;52.464;16.922;2023-12-14T11:39:05;100427.94;;;4.65;99.51
77110;BME280;66062;52.464;16.922;2023-12-14T11:41:31;100430.91;;;4.61;98.60
77110;BME280;66062;52.464;16.922;2023-12-14T11:43:58;100428.91;;;4.39;99.57
77110;BME280;66062;52.464;16.922;2023-12-14T11:46:24;100438.94;;;4.34;100.00
77110;BME280;66062;52.464;16.922;2023-12-14T11:48:49;100437.16;;;4.60;100.00
77110;BME280;66062;52.464;16.922;2023-12-14T11:51:16;100431.84;;;4.47;99.29
77110;BME280;66062;52.464;16.922;2023-12-14T11:53:46;100426.03;;;4.42;99.09
77110;BME280;66062;52.464;16.922;2023-12-14T11:56:14;100430.59;;;4.53;98.06
77110;BME280;66062;52.464;16.922;2023-12-14T11:58:43;100428.81;;;4.41;98.96
77110;BME280;66062;52.464;16.922;2023-12-14T12:01:19;100438.19;;;4.57;98.11
77110;BME280;66062;52.464;16.922;2023-12-14T12:03:46;100440.00;;;4.57;97.78
77110;BME280;66062;52.464;16.922;2023-12-14T12:06:22;100442.97;;;4.65;97.26
77110;BME280;66062;52.464;16.922;2023-12-14T12:08:48;100448.88;;;4.56;97.27
77110;BME280;66062;52.464;16.922;2023-12-14T12:11:20;100444.44;;;4.82;96.05
77110;BME280;66062;52.464;16.922;2023-12-14T12:13:51;100447.19;;;4.55;97.26
77110;BME280;66062;52.464;16.922;2023-12-14T12:16:17;100450.03;;;4.77;97.46
77110;BME280;66062;52.464;16.922;2023-12-14T12:18:42;100455.75;;;4.58;96.33
77110;BME280;66062;52.464;16.922;2023-12-14T12:21:07;100473.63;;;4.55;96.45
77110;BME280;66062;52.464;16.922;2023-12-14T12:23:34;100465.38;;;4.72;95.58
77110;BME280;66062;52.464;16.922;2023-12-14T12:26:00;100474.97;;;4.48;96.12
77110;BME280;66062;52.464;16.922;2023-12-14T12:28:25;100475.28;;;4.30;96.23
77110;BME280;66062;52.464;16.922;2023-12-14T12:30:51;100483.22;;;4.30;96.38
77110;BME280;66062;52.464;16.922;2023-12-14T12:33:16;100487.03;;;4.39;95.68
77110;BME280;66062;52.464;16.922;2023-12-14T12:35:42;100489.97;;;4.35;95.49
77110;BME280;66062;52.464;16.922;2023-12-14T12:38:07;100491.38;;;4.01;95.46
77110;BME280;66062;52.464;16.922;2023-12-14T12:40:33;100490.00;;;3.95;95.63
77110;BME280;66062;52.464;16.922;2023-12-14T12:42:59;100495.72;;;3.75;96.41
77110;BME280;66062;52.464;16.922;2023-12-14T12:45:24;100499.19;;;4.02;95.01
77110;BME280;66062;52.464;16.922;2023-12-14T12:47:53;100501.28;;;3.97;96.67